Time;durP1;ratioP1;P1;durP2;ratioP2;P2;SDS_P1;SDS_P2;PMS_P1;PMS_P2;Temp;Humidity;BMP_temperature;BMP_pressure;BME280_temperature;BME280_humidity;BME280_pressure;Samples;Min_cycle;Max_cycle;Signal;HPM_P1;HPM_P2
2021/11/07 00:06:54;;;;;;;22.20;19.13;;;;;;;4.85;100.00;101903.62;1732149;82;21030;-96
2021/11/07 00:09:32;;;;;;;25.80;18.92;;;;;;;4.81;100.00;101900.75;1741935;81;22218;-96
2021/11/07 00:12:01;;;;;;;23.90;19.35;;;;;;;4.77;100.00;101892.25;1741225;82;21043;-96
2021/11/07 00:14:32;;;;;;;21.48;17.23;;;;;;;4.76;100.00;101894.89;1743328;81;21066;-93
2021/11/07 00:16:59;;;;;;;25.70;17.70;;;;;;;4.74;100.00;101892.33;1731715;82;21587;-94
2021/11/07 00:19:33;;;;;;;24.90;18.80;;;;;;;4.71;100.00;101888.11;1742281;81;21097;-94
2021/11/07 00:27:57;;;;;;;24.05;18.45;;;;;;;4.73;100.00;101891.93;1700376;81;21290;-95
2021/11/07 00:33:52;;;;;;;22.32;17.27;;;;;;;4.78;100.00;101877.17;1774574;79;21845;-95
2021/11/07 00:38:24;;;;;;;24.50;18.50;;;;;;;4.82;100.00;101876.63;1768537;79;21029;-95
2021/11/07 00:41:16;;;;;;;21.50;17.12;;;;;;;4.82;100.00;101877.46;1761122;80;21166;-95
2021/11/07 00:43:40;;;;;;;22.98;18.92;;;;;;;4.83;100.00;101879.61;1782477;80;22111;-95
2021/11/07 00:46:14;;;;;;;29.48;18.32;;;;;;;4.86;100.00;101876.49;1781683;80;21033;-96
2021/11/07 00:48:46;;;;;;;22.85;17.55;;;;;;;4.93;100.00;101875.83;1753769;80;21061;-96
2021/11/07 00:51:23;;;;;;;23.05;16.95;;;;;;;4.99;100.00;101880.83;1751816;80;21085;-95
2021/11/07 00:53:53;;;;;;;21.45;17.10;;;;;;;5.03;100.00;101871.25;1777844;78;21139;-96
2021/11/07 00:56:23;;;;;;;26.27;17.92;;;;;;;5.05;100.00;101873.31;1789647;80;21112;-96
2021/11/07 01:05:57;;;;;;;21.17;15.60;;;;;;;5.07;100.00;101888.78;1768110;79;20999;-94
2021/11/07 01:08:28;;;;;;;24.72;15.88;;;;;;;4.96;100.00;101885.24;1731657;78;21352;-93
2021/11/07 01:11:07;;;;;;;23.15;16.87;;;;;;;4.87;100.00;101882.48;1702144;80;21192;31
2021/11/07 01:13:35;;;;;;;26.23;16.93;;;;;;;4.77;100.00;101878.06;1683781;84;21001;-96
2021/11/07 01:16:06;;;;;;;21.30;17.73;;;;;;;4.70;100.00;101882.55;1695361;84;21037;-95
2021/11/07 01:18:34;;;;;;;24.72;16.87;;;;;;;4.67;100.00;101883.95;1664480;86;21109;-94
2021/11/07 01:21:02;;;;;;;22.10;15.72;;;;;;;4.63;100.00;101888.79;1697374;84;21188;-92
2021/11/07 01:23:39;;;;;;;23.83;15.48;;;;;;;4.58;100.00;101894.08;1697238;84;21049;-93
2021/11/07 01:28:44;;;;;;;25.43;16.52;;;;;;;4.53;100.00;101897.68;1659230;84;20974;-96
2021/11/07 01:31:06;;;;;;;24.35;16.93;;;;;;;4.52;100.00;101896.84;1668259;80;21017;-96
2021/11/07 01:33:34;;;;;;;25.27;16.85;;;;;;;4.52;100.00;101898.59;1651677;86;21516;-94
2021/11/07 01:39:08;;;;;;;26.65;16.80;;;;;;;4.60;100.00;101900.94;1684192;83;21106;-96
2021/11/07 01:41:44;;;;;;;24.87;17.52;;;;;;;4.72;100.00;101893.68;1660585;83;21110;-96
2021/11/07 01:44:03;;;;;;;23.90;16.80;;;;;;;4.84;100.00;101899.38;1683856;83;21095;-96
2021/11/07 01:46:40;;;;;;;;;;;;;;;4.92;100.00;101902.56;1720195;82;21178;-94
2021/11/07 01:49:16;;;;;;;20.02;16.27;;;;;;;5.00;100.00;101892.84;1661642;83;20173;-96
2021/11/07 01:51:48;;;;;;;20.55;16.70;;;;;;;5.06;100.00;101894.37;1661268;83;21059;-96
2021/11/07 01:54:27;;;;;;;22.10;16.73;;;;;;;5.12;100.00;101890.75;1683092;83;21070;-96
2021/11/07 01:57:04;;;;;;;20.72;16.90;;;;;;;5.16;100.00;101896.23;1682119;83;21489;-96
2021/11/07 01:59:43;;;;;;;20.88;16.23;;;;;;;5.19;100.00;101893.11;1683657;83;21537;-96
2021/11/07 02:02:13;;;;;;;21.05;16.05;;;;;;;5.22;100.00;101893.45;1680324;83;20964;-96
2021/11/07 02:04:46;;;;;;;21.62;15.78;;;;;;;5.25;100.00;101885.58;1685163;83;21615;-96
2021/11/07 02:07:15;;;;;;;20.57;16.55;;;;;;;5.27;100.00;101887.67;1725692;79;21098;-95
2021/11/07 02:13:42;;;;;;;16.97;15.13;;;;;;;5.30;100.00;101886.30;1698656;81;21001;-96
2021/11/07 02:16:11;;;;;;;19.25;15.65;;;;;;;5.22;100.00;101879.25;1734889;82;21008;-96
2021/11/07 02:18:39;;;;;;;18.55;15.13;;;;;;;5.14;100.00;101882.06;1697979;83;21047;-95
2021/11/07 02:21:07;;;;;;;18.85;15.28;;;;;;;5.10;100.00;101885.65;1697844;83;21095;-96
2021/11/07 02:23:37;;;;;;;16.90;14.78;;;;;;;5.06;100.00;101887.91;1695999;83;21028;-96
2021/11/07 02:26:10;;;;;;;20.02;14.85;;;;;;;5.01;100.00;101884.19;1697384;83;21110;-93
2021/11/07 02:28:42;;;;;;;20.62;14.80;;;;;;;4.99;100.00;101879.97;1695901;81;21032;-95
2021/11/07 02:31:15;;;;;;;20.00;15.15;;;;;;;4.97;100.00;101881.74;1768886;81;21273;-96
2021/11/07 02:33:44;;;;;;;19.10;15.68;;;;;;;4.97;100.00;101882.60;1686039;79;21051;-94
2021/11/07 02:40:23;;;;;;;18.37;15.25;;;;;;;4.92;100.00;101883.20;1751378;80;22272;31
2021/11/07 02:50:11;;;;;;;20.70;13.62;;;;;;;4.77;100.00;101886.27;1689457;80;21393;-96
2021/11/07 02:52:42;;;;;;;25.17;13.98;;;;;;;4.80;100.00;101886.15;1686538;79;21108;-96
2021/11/07 02:58:33;;;;;;;15.88;13.00;;;;;;;4.89;100.00;101882.83;1738989;79;21027;-96
2021/11/07 03:01:03;;;;;;;25.52;14.50;;;;;;;4.98;100.00;101879.56;1709648;81;21508;-96
2021/11/07 03:03:30;;;;;;;20.15;15.35;;;;;;;5.03;100.00;101883.70;1707752;83;21027;-96
2021/11/07 03:06:00;;;;;;;27.37;16.55;;;;;;;5.08;100.00;101881.43;1683680;83;21914;-96
2021/11/07 03:08:31;;;;;;;27.52;16.57;;;;;;;5.08;100.00;101886.14;1726868;80;21212;-94
2021/11/07 03:11:00;;;;;;;25.52;18.37;;;;;;;5.07;100.00;101884.44;1722998;79;21011;-96
2021/11/07 03:13:39;;;;;;;19.50;16.90;;;;;;;5.08;100.00;101882.27;1723139;78;21031;-96
2021/11/07 03:16:17;;;;;;;22.02;17.62;;;;;;;5.09;100.00;101881.37;1621427;86;21038;-94
2021/11/07 03:18:48;;;;;;;20.72;16.55;;;;;;;5.04;100.00;101881.52;1647868;85;21078;-96
2021/11/07 03:21:19;;;;;;;20.35;15.40;;;;;;;4.87;100.00;101885.92;1629800;87;21179;-96
2021/11/07 03:23:50;;;;;;;22.40;14.60;;;;;;;4.66;100.00;101884.84;1609314;87;21545;-95
2021/11/07 03:26:42;;;;;;;19.80;15.48;;;;;;;4.54;100.00;101883.47;1680727;80;21101;31
2021/11/07 03:32:36;;;;;;;18.92;15.60;;;;;;;4.38;100.00;101888.67;1706451;83;21254;-95
2021/11/07 03:35:06;;;;;;;17.62;15.32;;;;;;;4.36;100.00;101880.13;1676636;83;21562;-96
2021/11/07 03:37:43;;;;;;;19.52;16.32;;;;;;;4.36;100.00;101891.73;1663438;83;21101;-95
2021/11/07 03:40:10;;;;;;;22.15;16.35;;;;;;;4.35;100.00;101883.16;1678208;83;21120;-95
2021/11/07 03:42:39;;;;;;;18.48;16.02;;;;;;;4.36;100.00;101886.57;1707723;83;21053;-96
2021/11/07 03:45:08;;;;;;;21.07;17.10;;;;;;;4.37;100.00;101890.39;1709610;84;21074;-96
2021/11/07 03:47:38;;;;;;;22.90;16.95;;;;;;;4.37;100.00;101890.39;1691096;84;21177;-96
2021/11/07 03:50:07;;;;;;;22.22;18.48;;;;;;;4.36;100.00;101887.44;1668180;83;21596;-96
2021/11/07 03:52:37;;;;;;;24.02;18.87;;;;;;;4.34;100.00;101888.34;1690684;83;21109;-95
2021/11/07 03:55:07;;;;;;;23.77;18.50;;;;;;;4.32;100.00;101894.02;1707912;83;21562;-95
2021/11/07 03:57:38;;;;;;;24.32;18.92;;;;;;;4.31;100.00;101895.73;1685020;83;21088;-96
2021/11/07 04:03:19;;;;;;;19.82;16.97;;;;;;;4.27;100.00;101901.88;1709816;79;21066;31
2021/11/07 04:05:46;;;;;;;29.75;20.90;;;;;;;4.24;100.00;101902.81;1705369;79;21052;-93
2021/11/07 04:12:14;;;;;;;132.05;24.27;;;;;;;4.20;100.00;101892.17;1678441;79;21029;-93
2021/11/07 04:14:44;;;;;;;;;;;;;;;4.22;100.00;101899.42;1681516;84;21200;-90
2021/11/07 04:17:11;;;;;;;31.07;23.55;;;;;;;4.25;100.00;101895.91;1674818;84;20187;-91
2021/11/07 04:19:38;;;;;;;37.35;25.72;;;;;;;4.19;100.00;101898.66;1673101;84;21070;-92
2021/11/07 04:22:08;;;;;;;40.12;26.10;;;;;;;4.07;100.00;101894.69;1665091;86;21017;-91
2021/11/07 04:24:36;;;;;;;37.85;25.40;;;;;;;3.95;100.00;101895.87;1665425;84;21082;-91
2021/11/07 04:27:04;;;;;;;38.23;26.48;;;;;;;3.84;100.00;101900.02;1665056;86;21503;-90
2021/11/07 04:29:34;;;;;;;39.70;26.27;;;;;;;3.68;100.00;101902.14;1664291;86;21591;-90
2021/11/07 04:32:03;;;;;;;38.80;24.87;;;;;;;3.46;100.00;101914.27;1664925;86;21607;-90
2021/11/07 04:34:31;;;;;;;36.17;25.70;;;;;;;3.20;100.00;101910.18;1638614;85;21009;-90
2021/11/07 04:37:02;;;;;;;38.42;25.00;;;;;;;2.92;100.00;101912.95;1665545;85;21100;-91
2021/11/07 04:39:31;;;;;;;33.28;23.50;;;;;;;2.68;100.00;101911.31;1645292;83;21158;-92
2021/11/07 04:41:58;;;;;;;33.55;23.65;;;;;;;2.48;100.00;101914.75;1655799;84;21063;-87
2021/11/07 04:44:26;;;;;;;38.80;24.12;;;;;;;2.40;100.00;101918.75;1678427;83;21023;-86
2021/11/07 04:46:53;;;;;;;33.42;25.37;;;;;;;2.42;100.00;101921.28;1676756;85;21000;-94
2021/11/07 04:49:23;;;;;;;34.35;24.65;;;;;;;2.33;100.00;101914.61;1646162;86;21066;-93
2021/11/07 04:51:52;;;;;;;37.40;25.77;;;;;;;2.33;100.00;101914.61;1646253;83;21200;-95
2021/11/07 04:54:22;;;;;;;35.58;25.27;;;;;;;2.21;100.00;101916.98;1680712;83;21034;-85
2021/11/07 04:56:51;;;;;;;41.15;27.37;;;;;;;2.08;100.00;101913.80;1713346;83;21038;-87
2021/11/07 04:59:18;;;;;;;39.45;27.00;;;;;;;2.13;100.00;101918.84;1707794;83;21770;-87
2021/11/07 05:01:45;;;;;;;39.05;26.37;;;;;;;2.19;100.00;101923.44;1684745;83;21055;-87
2021/11/07 05:04:13;;;;;;;38.17;26.25;;;;;;;2.27;100.00;101916.02;1679199;83;21157;-93
2021/11/07 05:06:41;;;;;;;38.17;27.73;;;;;;;2.28;100.00;101913.86;1657598;83;21648;-95
2021/11/07 05:09:08;;;;;;;36.58;26.02;;;;;;;2.30;100.00;101918.09;1694783;83;21075;-90
2021/11/07 05:11:36;;;;;;;43.78;25.65;;;;;;;2.27;100.00;101923.73;1712683;82;21029;-88
2021/11/07 05:14:03;;;;;;;40.58;27.98;;;;;;;2.25;100.00;101919.05;1717494;83;21151;-89
2021/11/07 05:16:30;;;;;;;42.88;27.82;;;;;;;2.36;100.00;101918.41;1713099;82;21089;-90
2021/11/07 05:18:58;;;;;;;48.23;30.27;;;;;;;2.36;100.00;101918.41;1709630;82;21061;-88
2021/11/07 05:21:27;;;;;;;38.02;28.47;;;;;;;2.39;100.00;101923.48;1708029;82;21239;-87
2021/11/07 05:24:01;;;;;;;42.17;29.82;;;;;;;2.37;100.00;101926.51;1687200;83;21575;-89
2021/11/07 05:26:28;;;;;;;44.58;30.65;;;;;;;2.35;100.00;101923.98;1686132;82;21588;-89
2021/11/07 05:28:57;;;;;;;49.40;32.93;;;;;;;2.36;100.00;101923.55;1708776;83;21179;-89
2021/11/07 05:31:24;;;;;;;46.13;30.02;;;;;;;2.34;100.00;101925.30;1708097;82;21132;-89
2021/11/07 05:33:51;;;;;;;40.95;27.98;;;;;;;2.32;100.00;101925.31;1674467;84;21670;-89
2021/11/07 05:36:18;;;;;;;37.35;26.90;;;;;;;2.31;100.00;101921.50;1673690;84;21030;-88
2021/11/07 05:38:46;;;;;;;38.98;26.23;;;;;;;2.33;100.00;101927.46;1708565;84;21074;-89
2021/11/07 05:41:13;;;;;;;35.60;26.00;;;;;;;2.35;100.00;101935.55;1708821;84;21090;-90
2021/11/07 05:43:41;;;;;;;48.78;26.50;;;;;;;2.43;100.00;101939.27;1687681;83;21037;-89
2021/11/07 05:46:08;;;;;;;35.60;24.80;;;;;;;2.53;100.00;101942.49;1678428;83;21059;-89
2021/11/07 05:48:39;;;;;;;35.58;24.50;;;;;;;2.89;100.00;101946.45;1662352;84;21077;-89
2021/11/07 05:51:07;;;;;;;;;;;;;;;2.89;100.00;101946.45;1623744;86;21645;-90
2021/11/07 05:53:35;;;;;;;35.73;25.05;;;;;;;3.02;100.00;101945.75;1645554;84;21836;-89
2021/11/07 05:56:02;;;;;;;40.63;25.75;;;;;;;3.21;100.00;101950.03;1714485;83;21589;-87
2021/11/07 05:58:31;;;;;;;38.35;25.57;;;;;;;3.21;100.00;101950.03;1717549;82;21421;-87
2021/11/07 06:00:58;;;;;;;36.45;25.55;;;;;;;3.32;100.00;101948.53;1689464;82;21579;-88
2021/11/07 06:03:25;;;;;;;38.60;26.50;;;;;;;3.43;100.00;101948.27;1708454;84;21073;-87
2021/11/07 06:05:54;;;;;;;38.40;26.05;;;;;;;3.54;100.00;101940.28;1707833;82;22012;-86
2021/11/07 06:08:21;;;;;;;40.55;26.93;;;;;;;3.60;100.00;101939.70;1708587;82;21089;-86
2021/11/07 06:10:48;;;;;;;39.58;26.80;;;;;;;3.66;100.00;101941.25;1686269;83;21045;-86
2021/11/07 06:13:15;;;;;;;40.63;27.05;;;;;;;3.73;100.00;101936.34;1700539;84;21544;-87
2021/11/07 06:15:44;;;;;;;36.45;28.50;;;;;;;3.82;100.00;101935.71;1699740;83;21140;-86
2021/11/07 06:18:11;;;;;;;41.18;28.42;;;;;;;3.91;100.00;101930.33;1679563;84;21147;-86
2021/11/07 06:20:39;;;;;;;37.88;29.85;;;;;;;4.01;100.00;101932.20;1668017;84;21090;-87
2021/11/07 06:23:09;;;;;;;39.78;28.73;;;;;;;4.09;100.00;101925.98;1676546;83;21094;-86
2021/11/07 06:25:36;;;;;;;43.87;30.50;;;;;;;4.20;100.00;101928.27;1697234;83;21107;-86
2021/11/07 06:28:05;;;;;;;41.88;31.12;;;;;;;4.31;100.00;101924.09;1700824;83;21712;-86
2021/11/07 06:30:34;;;;;;;45.38;33.20;;;;;;;4.44;100.00;101923.77;1699086;83;21828;-85
2021/11/07 06:33:03;;;;;;;45.45;32.63;;;;;;;4.56;100.00;101924.69;1678712;84;21562;-86
2021/11/07 06:35:30;;;;;;;43.63;31.97;;;;;;;4.66;100.00;101927.41;1700056;84;21098;-86
2021/11/07 06:37:57;;;;;;;43.30;31.68;;;;;;;4.76;100.00;101933.14;1678486;83;21086;-86
2021/11/07 06:40:24;;;;;;;43.65;30.40;;;;;;;4.87;100.00;101922.06;1695229;83;21043;-87
2021/11/07 06:42:51;;;;;;;44.85;32.95;;;;;;;4.96;100.00;101926.09;1640175;86;21825;-86
2021/11/07 06:45:18;;;;;;;44.60;33.35;;;;;;;5.05;100.00;101925.81;1646751;84;21573;-86
2021/11/07 06:47:47;;;;;;;49.30;33.18;;;;;;;5.15;100.00;101928.11;1700057;83;21492;-85
2021/11/07 06:50:16;;;;;;;47.13;32.17;;;;;;;5.24;100.00;101934.72;1702265;82;21010;-85
2021/11/07 06:52:44;;;;;;;45.43;34.70;;;;;;;5.30;100.00;101936.66;1699147;83;21066;-85
2021/11/07 06:55:13;;;;;;;46.70;32.65;;;;;;;5.40;100.00;101936.38;1677994;84;21948;-86
2021/11/07 06:57:42;;;;;;;44.25;33.92;;;;;;;5.49;100.00;101932.17;1699846;84;21050;-85
2021/11/07 07:00:17;;;;;;;47.95;34.78;;;;;;;5.58;100.00;101932.34;1699569;83;21046;-85
2021/11/07 07:02:46;;;;;;;46.73;35.30;;;;;;;5.66;100.00;101930.34;1699209;84;21073;-85
2021/11/07 07:05:17;;;;;;;49.25;33.48;;;;;;;5.75;100.00;101924.87;1688028;83;21101;-85
2021/11/07 07:07:50;;;;;;;50.73;35.33;;;;;;;5.85;100.00;101921.52;1646170;84;21652;-84
2021/11/07 07:10:33;;;;;;;45.58;34.20;;;;;;;5.98;100.00;101927.11;1668720;83;21050;-85
2021/11/07 07:13:13;;;;;;;46.73;34.00;;;;;;;6.08;100.00;101913.00;1628866;86;21570;-85
2021/11/07 07:15:45;;;;;;;46.98;34.53;;;;;;;6.20;100.00;101915.60;1660907;84;21049;-85
2021/11/07 07:21:01;;;;;;;45.78;34.10;;;;;;;6.31;100.00;101916.03;1708896;82;21713;-85
2021/11/07 07:23:39;;;;;;;46.42;33.95;;;;;;;6.37;100.00;101920.62;1690761;84;21054;-85
2021/11/07 07:28:53;;;;;;;50.38;34.65;;;;;;;6.49;100.00;101922.73;1693677;83;21076;-85
2021/11/07 07:31:28;;;;;;;49.83;34.70;;;;;;;6.58;100.00;101926.28;1633721;86;21072;-85
2021/11/07 07:34:00;;;;;;;49.00;33.67;;;;;;;6.69;100.00;101917.28;1632914;87;21827;-85
2021/11/07 07:36:22;;;;;;;50.67;34.25;;;;;;;6.75;100.00;101910.56;1674701;84;21073;-85
2021/11/07 07:38:49;;;;;;;43.13;32.42;;;;;;;6.84;100.00;101906.33;1679719;84;21073;-86
2021/11/07 07:41:16;;;;;;;44.38;32.50;;;;;;;6.95;100.00;101903.32;1695317;82;21923;-85
2021/11/07 07:43:43;;;;;;;47.75;33.18;;;;;;;7.03;100.00;101902.56;1666459;85;21038;-85
2021/11/07 07:46:12;;;;;;;47.78;34.60;;;;;;;7.11;100.00;101902.25;1662864;84;21112;-85
2021/11/07 07:48:45;;;;;;;51.50;34.30;;;;;;;7.20;100.00;101907.06;1707587;82;21159;-86
2021/11/07 07:51:16;;;;;;;48.68;32.83;;;;;;;7.25;100.00;101910.77;1708267;82;21570;-85
2021/11/07 07:53:45;;;;;;;45.08;32.50;;;;;;;7.32;100.00;101921.27;1708762;84;21488;-84
2021/11/07 07:56:13;;;;;;;34.80;27.02;;;;;;;7.39;100.00;101924.47;1708221;84;21094;-84
2021/11/07 07:58:41;;;;;;;38.85;27.60;;;;;;;7.47;100.00;101917.22;1650474;85;21093;-85
2021/11/07 08:01:09;;;;;;;44.30;29.50;;;;;;;7.55;100.00;101918.18;1635404;84;21622;-84
2021/11/07 08:03:36;;;;;;;36.50;27.00;;;;;;;7.64;100.00;101916.98;1707999;82;21041;-84
2021/11/07 08:06:04;;;;;;;39.33;26.80;;;;;;;7.70;100.00;101907.64;1650288;85;21085;-84
2021/11/07 08:08:31;;;;;;;39.03;26.93;;;;;;;7.74;100.00;101904.84;1666113;84;21147;-84
2021/11/07 08:10:58;;;;;;;33.38;24.65;;;;;;;7.78;100.00;101904.27;1707338;82;21137;-84
2021/11/07 08:13:26;;;;;;;34.78;26.45;;;;;;;7.81;100.00;101904.11;1678794;84;22066;-84
2021/11/07 08:15:55;;;;;;;86.78;30.12;;;;;;;7.90;100.00;101905.02;1657604;84;21030;-84
2021/11/07 08:18:22;;;;;;;102.25;30.85;;;;;;;8.07;100.00;101904.73;1708585;83;21038;-85
2021/11/07 08:20:49;;;;;;;57.25;31.40;;;;;;;8.28;100.00;101908.61;1700582;82;20982;-84
2021/11/07 08:23:21;;;;;;;74.25;32.15;;;;;;;8.49;100.00;101905.53;1701897;83;21080;-84
2021/11/07 08:25:46;;;;;;;50.28;32.00;;;;;;;8.70;100.00;101896.35;1697224;83;20951;-84
2021/11/07 08:28:16;;;;;;;49.80;33.00;;;;;;;8.89;100.00;101891.13;1666418;84;21019;-84
2021/11/07 08:30:42;;;;;;;58.52;33.08;;;;;;;9.02;100.00;101884.42;1698593;83;21519;-84
2021/11/07 08:33:10;;;;;;;57.05;32.98;;;;;;;9.17;100.00;101886.73;1659636;82;21571;-84
2021/11/07 08:35:44;;;;;;;61.70;32.73;;;;;;;9.29;100.00;101885.30;1657608;85;21639;-84
2021/11/07 08:38:18;;;;;;;51.85;32.05;;;;;;;9.43;100.00;101882.84;1646770;85;21413;-83
2021/11/07 08:40:43;;;;;;;40.43;28.98;;;;;;;9.55;100.00;101881.38;1699896;82;21114;-84
2021/11/07 08:54:30;;;;;;;41.25;26.77;;;;;;;9.61;100.00;101878.47;1698954;83;21093;-84
2021/11/07 09:04:58;;;;;;;40.85;28.87;;;;;;;9.73;100.00;101863.16;1619205;88;21548;-83
2021/11/07 09:07:36;;;;;;;42.03;31.05;;;;;;;9.76;100.00;101869.05;1630629;85;21511;-83
2021/11/07 09:09:59;;;;;;;37.50;29.05;;;;;;;9.76;100.00;101867.75;1676993;84;21030;-83
2021/11/07 09:12:21;;;;;;;39.03;29.55;;;;;;;9.72;100.00;101862.34;1673104;84;20978;-83
2021/11/07 09:14:50;;;;;;;38.10;29.05;;;;;;;9.74;100.00;101857.88;1676841;84;21045;-84
2021/11/07 09:17:17;;;;;;;47.38;32.67;;;;;;;9.76;100.00;101851.31;1678680;84;21060;-83
2021/11/07 09:19:48;;;;;;;46.40;33.28;;;;;;;9.77;100.00;101843.42;1660615;85;21050;-83
2021/11/07 09:22:35;;;;;;;46.00;32.90;;;;;;;9.80;100.00;101843.71;1675989;85;21102;-84
2021/11/07 09:25:02;;;;;;;54.63;34.03;;;;;;;9.85;100.00;101840.88;1640704;85;21117;-84
2021/11/07 09:32:49;;;;;;;50.05;33.53;;;;;;;10.11;100.00;101832.98;1705219;83;21039;-84
2021/11/07 09:35:23;;;;;;;52.00;33.02;;;;;;;10.19;100.00;101829.50;1697151;84;21032;-84
2021/11/07 09:37:56;;;;;;;52.75;35.45;;;;;;;10.27;100.00;101823.89;1682085;84;20985;-83
2021/11/07 09:40:24;;;;;;;48.90;33.78;;;;;;;10.39;100.00;101814.13;1654215;85;21190;-83
2021/11/07 09:43:19;;;;;;;52.95;33.63;;;;;;;10.53;100.00;101806.02;1636790;85;27203;-84
2021/11/07 09:45:49;;;;;;;45.80;34.40;;;;;;;10.60;100.00;101796.94;1647826;84;21104;-85
2021/11/07 09:48:19;;;;;;;47.40;33.98;;;;;;;10.76;100.00;101801.28;1646643;85;21135;-84
2021/11/07 09:50:46;;;;;;;49.48;33.18;;;;;;;10.82;100.00;101799.61;1646338;85;21697;-83
2021/11/07 09:53:16;;;;;;;41.55;31.45;;;;;;;10.85;100.00;101795.55;1637036;85;21174;-83
2021/11/07 09:55:45;;;;;;;46.13;31.70;;;;;;;10.84;100.00;101791.25;1648577;85;21577;-83
2021/11/07 09:58:13;;;;;;;44.55;32.23;;;;;;;10.83;100.00;101789.58;1648559;85;21021;-83
2021/11/07 10:00:49;;;;;;;44.98;28.60;;;;;;;10.90;100.00;101785.69;1648437;85;21025;-83
2021/11/07 10:03:19;;;;;;;42.17;31.52;;;;;;;10.92;100.00;101784.28;1636631;85;21139;-84
2021/11/07 10:05:51;;;;;;;42.23;30.15;;;;;;;10.84;100.00;101778.23;1647326;85;21156;-83
2021/11/07 10:08:22;;;;;;;44.05;30.37;;;;;;;10.79;100.00;101768.07;1648597;85;21522;-84
2021/11/07 10:11:00;;;;;;;39.80;28.37;;;;;;;10.82;100.00;101764.44;1649221;85;21109;-84
2021/11/07 10:13:26;;;;;;;35.28;27.10;;;;;;;10.88;100.00;101755.81;1651714;86;21051;-84
2021/11/07 10:16:05;;;;;;;37.70;25.48;;;;;;;10.89;100.00;101746.22;1603411;87;21043;-84
2021/11/07 10:21:23;;;;;;;33.45;24.10;;;;;;;10.81;100.00;101749.73;1713145;83;21026;-84
2021/11/07 10:24:17;;;;;;;30.17;21.25;;;;;;;10.77;100.00;101758.67;1645662;86;21054;-84
2021/11/07 10:26:56;;;;;;;32.60;21.05;;;;;;;10.77;100.00;101760.80;1701753;82;21631;-87
2021/11/07 10:29:24;;;;;;;37.20;22.70;;;;;;;10.71;100.00;101748.95;1706599;82;21061;-87
2021/11/07 10:32:12;;;;;;;29.87;21.00;;;;;;;10.66;100.00;101754.91;1707187;83;21133;-88
2021/11/07 10:35:12;;;;;;;24.75;18.90;;;;;;;10.66;100.00;101748.39;1688041;83;21266;-85
2021/11/07 10:37:37;;;;;;;33.42;19.00;;;;;;;10.69;100.00;101744.33;1706055;82;21003;-84
2021/11/07 10:54:00;;;;;;;15.10;11.08;;;;;;;10.70;100.00;101727.73;1703206;83;21030;-82
2021/11/07 10:56:27;;;;;;;14.10;10.53;;;;;;;10.70;100.00;101721.22;1685030;83;21038;-83
2021/11/07 10:58:55;;;;;;;11.95;9.93;;;;;;;10.67;100.00;101712.30;1707955;82;21099;-82
2021/11/07 11:01:25;;;;;;;14.07;10.58;;;;;;;10.60;100.00;101714.03;1708030;82;21073;-82
2021/11/07 11:04:01;;;;;;;13.30;10.30;;;;;;;10.52;100.00;101704.08;1708979;82;21125;-82
2021/11/07 11:06:29;;;;;;;12.73;9.23;;;;;;;10.48;100.00;101700.81;1708826;82;21589;-82
2021/11/07 11:09:03;;;;;;;9.10;8.13;;;;;;;10.46;100.00;101703.10;1673698;85;21731;-82
2021/11/07 11:14:32;;;;;;;12.35;9.03;;;;;;;10.40;100.00;101702.53;1668768;85;21004;-82
2021/11/07 11:27:57;;;;;;;11.88;9.30;;;;;;;10.35;100.00;101687.63;1699107;83;21042;-82
2021/11/07 11:33:13;;;;;;;11.48;9.23;;;;;;;10.40;100.00;101674.37;1637514;84;21179;-83
2021/11/07 11:35:38;;;;;;;11.78;9.73;;;;;;;10.47;100.00;101665.72;1698989;83;21095;-82
2021/11/07 11:38:19;;;;;;;15.95;10.03;;;;;;;10.49;100.00;101662.12;1662541;86;21118;-83
2021/11/07 11:43:19;;;;;;;12.20;9.25;;;;;;;10.52;100.00;101643.70;1699541;84;21094;-83
2021/11/07 11:45:54;;;;;;;11.63;8.30;;;;;;;10.54;100.00;101643.60;1696516;84;21086;-83
2021/11/07 11:56:50;;;;;;;13.98;10.38;;;;;;;10.60;100.00;101623.73;1639192;86;21062;-84
2021/11/07 11:59:41;;;;;;;13.60;9.70;;;;;;;10.62;100.00;101621.03;1631713;87;21066;-84
2021/11/07 12:02:17;;;;;;;16.57;9.83;;;;;;;10.60;100.00;101622.43;1643239;87;26469;-84
2021/11/07 12:05:02;;;;;;;13.25;10.00;;;;;;;10.56;100.00;101626.13;1698882;84;21885;-83
2021/11/07 12:07:37;;;;;;;12.78;9.85;;;;;;;10.53;100.00;101629.76;1687135;84;21101;-84
2021/11/07 12:10:15;;;;;;;12.35;9.55;;;;;;;10.52;100.00;101625.47;1677367;84;21069;-84
2021/11/07 12:12:52;;;;;;;11.55;9.38;;;;;;;10.53;100.00;101626.33;1663451;84;21627;-84
2021/11/07 12:15:24;;;;;;;11.20;8.08;;;;;;;10.52;100.00;101622.87;1659739;85;21063;-84
2021/11/07 12:17:47;;;;;;;10.40;7.28;;;;;;;10.51;100.00;101624.27;1621760;86;21171;-84
2021/11/07 12:20:29;;;;;;;10.53;6.65;;;;;;;10.47;100.00;101622.76;1693231;84;21050;-84
2021/11/07 12:23:30;;;;;;;8.05;6.55;;;;;;;10.41;100.00;101613.56;1662129;86;21090;-84
2021/11/07 12:25:58;;;;;;;8.15;6.70;;;;;;;10.37;100.00;101608.15;1659536;85;21023;-84
2021/11/07 12:28:44;;;;;;;8.03;6.03;;;;;;;10.31;100.00;101613.20;1662074;84;22581;-83
2021/11/07 12:31:11;;;;;;;7.50;6.10;;;;;;;10.28;100.00;101613.41;1696227;84;21071;-83
2021/11/07 12:34:00;;;;;;;7.22;6.08;;;;;;;10.23;100.00;101608.91;1661673;85;21039;-82
2021/11/07 12:41:43;;;;;;;6.30;4.95;;;;;;;10.15;100.00;101607.21;1696449;83;21085;-84
2021/11/07 12:44:26;;;;;;;7.10;5.03;;;;;;;10.13;100.00;101618.20;1695711;84;21580;-84
2021/11/07 12:47:06;;;;;;;7.70;4.83;;;;;;;10.09;100.00;101625.34;1693972;83;21520;-84
2021/11/07 12:49:31;;;;;;;11.90;7.72;;;;;;;10.06;100.00;101630.23;1708077;82;21164;-83
2021/11/07 12:52:16;;;;;;;7.83;6.30;;;;;;;10.04;100.00;101633.85;1710993;83;21804;-84
2021/11/07 12:54:44;;;;;;;6.72;6.03;;;;;;;10.01;100.00;101625.77;1710298;83;21467;-83
2021/11/07 12:57:18;;;;;;;7.22;6.12;;;;;;;9.99;100.00;101631.51;1710796;83;21109;-83
2021/11/07 12:59:57;;;;;;;8.63;6.15;;;;;;;9.96;100.00;101622.59;1680233;83;21060;-83
2021/11/07 13:02:32;;;;;;;14.43;6.12;;;;;;;9.95;100.00;101618.31;1711815;83;21054;-84
2021/11/07 13:05:25;;;;;;;12.35;5.60;;;;;;;9.95;100.00;101602.70;1710978;83;21123;-84
2021/11/07 13:08:05;;;;;;;15.15;6.83;;;;;;;9.96;100.00;101596.58;1678057;83;21144;-84
2021/11/07 13:11:00;;;;;;;15.05;5.62;;;;;;;10.03;100.00;101599.64;1663265;83;21224;-83
2021/11/07 13:16:09;;;;;;;25.05;6.37;;;;;;;10.14;100.00;101595.13;1712591;82;20995;-83
2021/11/07 13:21:28;;;;;;;71.28;10.88;;;;;;;10.18;100.00;101579.72;1671788;84;21505;-83
2021/11/07 13:36:46;;;;;;;14.93;5.90;;;;;;;10.48;100.00;101565.84;1830412;78;22676;-83
2021/11/07 13:39:31;;;;;;;13.48;5.65;;;;;;;10.44;100.00;101569.58;1797629;78;21050;-83
2021/11/07 13:42:14;;;;;;;36.08;7.05;;;;;;;10.36;100.00;101566.94;1773400;80;21162;-83
2021/11/07 13:45:00;;;;;;;16.17;6.30;;;;;;;10.30;100.00;101561.24;1689946;84;21125;-83
2021/11/07 13:47:43;;;;;;;10.00;5.92;;;;;;;10.23;100.00;101557.70;1696246;82;21064;-83
2021/11/07 13:50:14;;;;;;;16.37;6.33;;;;;;;10.17;100.00;101561.12;1726156;82;21155;-83
2021/11/07 13:52:43;;;;;;;10.53;5.35;;;;;;;10.10;100.00;101556.28;1736933;82;21015;-83
2021/11/07 14:08:49;;;;;;;7.60;6.22;;;;;;;10.04;100.00;101562.30;1818011;77;22159;-82
2021/11/07 14:11:19;;;;;;;6.42;5.30;;;;;;;9.95;100.00;101562.37;1805146;78;21456;-82
2021/11/07 14:13:52;;;;;;;106.32;43.50;;;;;;;9.84;100.00;101562.99;1805050;78;20976;-82
2021/11/07 14:16:58;;;;;;;78.52;29.77;;;;;;;9.66;100.00;101550.54;1789143;78;21752;-83
2021/11/07 14:19:20;;;;;;;66.65;23.52;;;;;;;9.45;100.00;101562.53;1816038;78;20986;-83